sensor_id;sensor_type;location;lat;lon;timestamp;pressure;altitude;pressure_sealevel;temperature;humidity
52469;BME280;38381;53.688;10.776;2023-10-31T00:02:22;99155.25;;;11.13;100.00
52469;BME280;38381;53.688;10.776;2023-10-31T00:07:22;99150.25;;;11.05;100.00
52469;BME280;38381;53.688;10.776;2023-10-31T00:12:22;99136.34;;;11.08;100.00
52469;BME280;38381;53.688;10.776;2023-10-31T00:17:23;99142.78;;;11.29;100.00
52469;BME280;38381;53.688;10.776;2023-10-31T00:22:25;99129.13;;;11.21;100.00
52469;BME280;38381;53.688;10.776;2023-10-31T00:27:26;99128.13;;;11.28;100.00
52469;BME280;38381;53.688;10.776;2023-10-31T00:32:26;99128.59;;;11.06;100.00
52469;BME280;38381;53.688;10.776;2023-10-31T00:37:27;99125.44;;;10.92;100.00
52469;BME280;38381;53.688;10.776;2023-10-31T00:42:27;99111.59;;;10.93;100.00
52469;BME280;38381;53.688;10.776;2023-10-31T00:47:27;99111.88;;;10.79;100.00
52469;BME280;38381;53.688;10.776;2023-10-31T00:52:28;99104.69;;;10.92;100.00
52469;BME280;38381;53.688;10.776;2023-10-31T00:57:28;99095.38;;;10.83;100.00
52469;BME280;38381;53.688;10.776;2023-10-31T01:02:30;99091.66;;;10.95;100.00
52469;BME280;38381;53.688;10.776;2023-10-31T01:07:30;99082.38;;;10.85;100.00
52469;BME280;38381;53.688;10.776;2023-10-31T01:12:30;99077.13;;;10.86;100.00
52469;BME280;38381;53.688;10.776;2023-10-31T01:17:31;99071.09;;;10.87;100.00
52469;BME280;38381;53.688;10.776;2023-10-31T01:22:31;99068.03;;;10.69;100.00
52469;BME280;38381;53.688;10.776;2023-10-31T01:27:32;99067.09;;;10.73;100.00
52469;BME280;38381;53.688;10.776;2023-10-31T01:32:32;99068.22;;;10.59;100.00
52469;BME280;38381;53.688;10.776;2023-10-31T01:37:33;99062.09;;;10.63;100.00
52469;BME280;38381;53.688;10.776;2023-10-31T01:42:33;99061.16;;;10.66;100.00
52469;BME280;38381;53.688;10.776;2023-10-31T01:47:34;99058.75;;;10.58;100.00
52469;BME280;38381;53.688;10.776;2023-10-31T01:52:35;99053.69;;;10.52;100.00
52469;BME280;38381;53.688;10.776;2023-10-31T01:57:36;99055.13;;;10.65;100.00
52469;BME280;38381;53.688;10.776;2023-10-31T02:02:37;99041.72;;;10.45;100.00
52469;BME280;38381;53.688;10.776;2023-10-31T02:07:42;99016.59;;;10.50;100.00
52469;BME280;38381;53.688;10.776;2023-10-31T02:12:44;99020.81;;;10.54;100.00
52469;BME280;38381;53.688;10.776;2023-10-31T02:17:45;99013.91;;;10.53;100.00
52469;BME280;38381;53.688;10.776;2023-10-31T02:22:45;99008.59;;;10.59;100.00
52469;BME280;38381;53.688;10.776;2023-10-31T02:27:46;99002.00;;;10.46;100.00
52469;BME280;38381;53.688;10.776;2023-10-31T02:32:47;98997.69;;;10.43;100.00
52469;BME280;38381;53.688;10.776;2023-10-31T02:37:47;98996.00;;;10.42;100.00
52469;BME280;38381;53.688;10.776;2023-10-31T02:42:48;98976.91;;;10.46;100.00
52469;BME280;38381;53.688;10.776;2023-10-31T02:47:49;98980.31;;;10.50;100.00
52469;BME280;38381;53.688;10.776;2023-10-31T02:52:49;98976.09;;;10.44;100.00
52469;BME280;38381;53.688;10.776;2023-10-31T02:57:49;98957.88;;;10.47;100.00
52469;BME280;38381;53.688;10.776;2023-10-31T03:02:50;98954.47;;;10.45;100.00
52469;BME280;38381;53.688;10.776;2023-10-31T03:07:50;98944.16;;;10.44;100.00
52469;BME280;38381;53.688;10.776;2023-10-31T03:12:51;98944.88;;;10.49;100.00
52469;BME280;38381;53.688;10.776;2023-10-31T03:17:51;98948.16;;;10.57;100.00
52469;BME280;38381;53.688;10.776;2023-10-31T03:22:51;98940.81;;;10.76;100.00
52469;BME280;38381;53.688;10.776;2023-10-31T03:27:52;98927.31;;;10.62;100.00
52469;BME280;38381;53.688;10.776;2023-10-31T03:32:52;98932.47;;;10.63;100.00
52469;BME280;38381;53.688;10.776;2023-10-31T03:37:53;98926.78;;;10.85;100.00
52469;BME280;38381;53.688;10.776;2023-10-31T03:42:53;98915.69;;;10.78;100.00
52469;BME280;38381;53.688;10.776;2023-10-31T03:47:53;98917.38;;;10.81;100.00
52469;BME280;38381;53.688;10.776;2023-10-31T03:52:54;98908.13;;;10.71;100.00
52469;BME280;38381;53.688;10.776;2023-10-31T03:57:54;98903.50;;;10.82;100.00
52469;BME280;38381;53.688;10.776;2023-10-31T04:02:55;98898.41;;;10.79;100.00
52469;BME280;38381;53.688;10.776;2023-10-31T04:07:55;98893.81;;;10.88;100.00
52469;BME280;38381;53.688;10.776;2023-10-31T04:12:56;98883.13;;;11.02;100.00
52469;BME280;38381;53.688;10.776;2023-10-31T04:17:56;98881.72;;;10.89;100.00
52469;BME280;38381;53.688;10.776;2023-10-31T04:22:57;98880.50;;;11.02;100.00
52469;BME280;38381;53.688;10.776;2023-10-31T04:27:57;98883.91;;;11.04;100.00
52469;BME280;38381;53.688;10.776;2023-10-31T04:32:58;98886.63;;;11.01;100.00
52469;BME280;38381;53.688;10.776;2023-10-31T04:37:58;98875.94;;;11.12;100.00
52469;BME280;38381;53.688;10.776;2023-10-31T04:42:59;98871.31;;;11.23;100.00
52469;BME280;38381;53.688;10.776;2023-10-31T04:47:59;98871.47;;;11.17;100.00
52469;BME280;38381;53.688;10.776;2023-10-31T04:52:59;98858.56;;;11.16;100.00
52469;BME280;38381;53.688;10.776;2023-10-31T04:58:00;98850.31;;;11.33;100.00
52469;BME280;38381;53.688;10.776;2023-10-31T05:03:00;98847.94;;;11.25;100.00
52469;BME280;38381;53.688;10.776;2023-10-31T05:08:02;98835.34;;;11.42;100.00
52469;BME280;38381;53.688;10.776;2023-10-31T05:13:02;98833.03;;;11.32;100.00
52469;BME280;38381;53.688;10.776;2023-10-31T05:18:03;98821.22;;;11.53;100.00
52469;BME280;38381;53.688;10.776;2023-10-31T05:23:03;98827.56;;;11.42;100.00
52469;BME280;38381;53.688;10.776;2023-10-31T05:28:04;98819.84;;;11.39;100.00
52469;BME280;38381;53.688;10.776;2023-10-31T05:33:04;98828.88;;;11.57;100.00
52469;BME280;38381;53.688;10.776;2023-10-31T05:38:05;98820.16;;;11.58;100.00
52469;BME280;38381;53.688;10.776;2023-10-31T05:43:05;98812.69;;;11.47;100.00
52469;BME280;38381;53.688;10.776;2023-10-31T05:48:06;98822.84;;;11.57;100.00
52469;BME280;38381;53.688;10.776;2023-10-31T05:53:06;98823.44;;;11.35;100.00
52469;BME280;38381;53.688;10.776;2023-10-31T05:58:06;98818.53;;;11.56;100.00
52469;BME280;38381;53.688;10.776;2023-10-31T06:03:07;98828.56;;;11.68;100.00
52469;BME280;38381;53.688;10.776;2023-10-31T06:08:09;98826.34;;;11.84;100.00
52469;BME280;38381;53.688;10.776;2023-10-31T06:13:09;98838.75;;;11.74;100.00
52469;BME280;38381;53.688;10.776;2023-10-31T06:18:09;98824.72;;;11.81;100.00
52469;BME280;38381;53.688;10.776;2023-10-31T06:23:10;98825.69;;;11.77;100.00
52469;BME280;38381;53.688;10.776;2023-10-31T06:28:10;98831.78;;;11.76;100.00
52469;BME280;38381;53.688;10.776;2023-10-31T06:33:11;98838.78;;;11.73;100.00
52469;BME280;38381;53.688;10.776;2023-10-31T06:38:12;98827.66;;;11.99;100.00
52469;BME280;38381;53.688;10.776;2023-10-31T06:43:13;98832.09;;;11.95;100.00
52469;BME280;38381;53.688;10.776;2023-10-31T06:48:13;98836.00;;;12.10;100.00
52469;BME280;38381;53.688;10.776;2023-10-31T06:53:14;98838.50;;;11.83;100.00
52469;BME280;38381;53.688;10.776;2023-10-31T06:58:14;98826.25;;;11.88;100.00
52469;BME280;38381;53.688;10.776;2023-10-31T07:03:19;98824.13;;;12.01;100.00
52469;BME280;38381;53.688;10.776;2023-10-31T07:08:19;98821.06;;;11.87;100.00
52469;BME280;38381;53.688;10.776;2023-10-31T07:13:20;98823.56;;;11.92;100.00
52469;BME280;38381;53.688;10.776;2023-10-31T07:18:20;98816.41;;;12.00;100.00
52469;BME280;38381;53.688;10.776;2023-10-31T07:23:21;98814.84;;;11.94;100.00
52469;BME280;38381;53.688;10.776;2023-10-31T07:28:21;98819.44;;;11.83;100.00
52469;BME280;38381;53.688;10.776;2023-10-31T07:33:22;98824.00;;;12.06;100.00
52469;BME280;38381;53.688;10.776;2023-10-31T07:38:22;98822.78;;;11.90;100.00
52469;BME280;38381;53.688;10.776;2023-10-31T07:43:22;98820.88;;;11.95;100.00
52469;BME280;38381;53.688;10.776;2023-10-31T07:48:23;98824.09;;;12.03;100.00
52469;BME280;38381;53.688;10.776;2023-10-31T07:53:23;98812.53;;;12.12;100.00
52469;BME280;38381;53.688;10.776;2023-10-31T07:58:23;98818.88;;;12.03;100.00
52469;BME280;38381;53.688;10.776;2023-10-31T08:03:24;98824.09;;;11.73;100.00
52469;BME280;38381;53.688;10.776;2023-10-31T08:08:25;98820.25;;;11.85;100.00
52469;BME280;38381;53.688;10.776;2023-10-31T08:13:25;98824.75;;;11.80;100.00
52469;BME280;38381;53.688;10.776;2023-10-31T08:18:26;98823.91;;;11.79;100.00
52469;BME280;38381;53.688;10.776;2023-10-31T08:23:28;98820.50;;;11.47;100.00
52469;BME280;38381;53.688;10.776;2023-10-31T08:28:29;98820.00;;;11.64;100.00
52469;BME280;38381;53.688;10.776;2023-10-31T08:33:35;98834.56;;;11.70;100.00
52469;BME280;38381;53.688;10.776;2023-10-31T08:38:36;98832.16;;;11.62;100.00
52469;BME280;38381;53.688;10.776;2023-10-31T08:43:36;98840.13;;;11.56;100.00
52469;BME280;38381;53.688;10.776;2023-10-31T08:48:37;98838.59;;;11.51;100.00
52469;BME280;38381;53.688;10.776;2023-10-31T08:53:37;98843.78;;;11.51;100.00
52469;BME280;38381;53.688;10.776;2023-10-31T08:58:37;98841.41;;;11.41;100.00
52469;BME280;38381;53.688;10.776;2023-10-31T09:03:38;98845.81;;;11.39;100.00
52469;BME280;38381;53.688;10.776;2023-10-31T09:08:38;98854.72;;;11.29;100.00
52469;BME280;38381;53.688;10.776;2023-10-31T09:13:39;98850.50;;;11.26;100.00
52469;BME280;38381;53.688;10.776;2023-10-31T09:18:40;98855.00;;;11.20;100.00
52469;BME280;38381;53.688;10.776;2023-10-31T09:23:43;98852.94;;;11.31;99.89
52469;BME280;38381;53.688;10.776;2023-10-31T09:28:43;98862.34;;;11.02;100.00
52469;BME280;38381;53.688;10.776;2023-10-31T09:33:49;98875.47;;;10.98;100.00
52469;BME280;38381;53.688;10.776;2023-10-31T09:38:50;98882.13;;;11.06;100.00
52469;BME280;38381;53.688;10.776;2023-10-31T09:43:50;98877.09;;;11.02;100.00
52469;BME280;38381;53.688;10.776;2023-10-31T09:48:51;98874.66;;;10.96;100.00
52469;BME280;38381;53.688;10.776;2023-10-31T09:53:54;98882.88;;;11.12;100.00
52469;BME280;38381;53.688;10.776;2023-10-31T09:58:55;98884.75;;;11.05;100.00
52469;BME280;38381;53.688;10.776;2023-10-31T10:03:56;98887.66;;;11.27;100.00
52469;BME280;38381;53.688;10.776;2023-10-31T10:08:58;98888.09;;;11.12;100.00
52469;BME280;38381;53.688;10.776;2023-10-31T10:13:59;98902.25;;;11.31;100.00
52469;BME280;38381;53.688;10.776;2023-10-31T10:19:15;98913.06;;;11.16;100.00
52469;BME280;38381;53.688;10.776;2023-10-31T10:24:17;98915.31;;;11.28;100.00
52469;BME280;38381;53.688;10.776;2023-10-31T10:29:18;98910.94;;;11.30;100.00
52469;BME280;38381;53.688;10.776;2023-10-31T10:34:19;98923.00;;;11.33;100.00
52469;BME280;38381;53.688;10.776;2023-10-31T10:39:23;98928.19;;;11.33;100.00
52469;BME280;38381;53.688;10.776;2023-10-31T10:44:32;98941.81;;;11.41;100.00
52469;BME280;38381;53.688;10.776;2023-10-31T10:49:36;98939.50;;;11.30;100.00
52469;BME280;38381;53.688;10.776;2023-10-31T10:54:45;98944.53;;;11.36;100.00
52469;BME280;38381;53.688;10.776;2023-10-31T10:59:51;98964.69;;;11.25;100.00
52469;BME280;38381;53.688;10.776;2023-10-31T11:04:57;98984.16;;;11.07;100.00
52469;BME280;38381;53.688;10.776;2023-10-31T11:09:59;99006.91;;;10.96;100.00
52469;BME280;38381;53.688;10.776;2023-10-31T11:15:03;99037.56;;;10.38;100.00
52469;BME280;38381;53.688;10.776;2023-10-31T11:20:05;99073.53;;;10.06;99.98
52469;BME280;38381;53.688;10.776;2023-10-31T11:25:27;99099.75;;;9.90;100.00
52469;BME280;38381;53.688;10.776;2023-10-31T11:30:33;99151.91;;;9.68;100.00
52469;BME280;38381;53.688;10.776;2023-10-31T11:35:38;99167.38;;;9.71;100.00
52469;BME280;38381;53.688;10.776;2023-10-31T11:45:49;99204.63;;;9.61;100.00
52469;BME280;38381;53.688;10.776;2023-10-31T11:50:49;99232.28;;;9.57;100.00
52469;BME280;38381;53.688;10.776;2023-10-31T11:55:50;99243.44;;;9.62;100.00
52469;BME280;38381;53.688;10.776;2023-10-31T12:00:52;99263.16;;;9.71;100.00
52469;BME280;38381;53.688;10.776;2023-10-31T12:05:54;99280.38;;;9.74;99.60
52469;BME280;38381;53.688;10.776;2023-10-31T12:11:08;99294.13;;;9.79;99.01
52469;BME280;38381;53.688;10.776;2023-10-31T12:16:10;99311.50;;;9.67;98.68
52469;BME280;38381;53.688;10.776;2023-10-31T12:21:11;99324.53;;;9.63;98.28
52469;BME280;38381;53.688;10.776;2023-10-31T12:26:22;99332.19;;;9.71;98.89
52469;BME280;38381;53.688;10.776;2023-10-31T12:31:22;99350.38;;;9.66;99.17
52469;BME280;38381;53.688;10.776;2023-10-31T12:36:23;99364.19;;;9.65;98.56
52469;BME280;38381;53.688;10.776;2023-10-31T12:41:26;99379.63;;;9.74;98.55
52469;BME280;38381;53.688;10.776;2023-10-31T12:46:31;99394.28;;;9.75;99.11
52469;BME280;38381;53.688;10.776;2023-10-31T12:51:32;99412.41;;;9.74;99.06
52469;BME280;38381;53.688;10.776;2023-10-31T13:01:43;99431.47;;;9.68;98.17
52469;BME280;38381;53.688;10.776;2023-10-31T13:06:57;99421.06;;;9.70;98.52
52469;BME280;38381;53.688;10.776;2023-10-31T13:12:01;99436.50;;;9.80;98.25
52469;BME280;38381;53.688;10.776;2023-10-31T13:17:02;99454.59;;;9.83;98.33
52469;BME280;38381;53.688;10.776;2023-10-31T13:22:02;99456.28;;;9.86;98.69
52469;BME280;38381;53.688;10.776;2023-10-31T13:27:03;99465.69;;;9.95;98.82
52469;BME280;38381;53.688;10.776;2023-10-31T13:32:04;99479.47;;;9.97;98.48
52469;BME280;38381;53.688;10.776;2023-10-31T13:37:04;99485.44;;;10.03;98.13
52469;BME280;38381;53.688;10.776;2023-10-31T13:42:05;99490.56;;;10.06;97.59
52469;BME280;38381;53.688;10.776;2023-10-31T13:47:07;99501.81;;;10.04;97.08
52469;BME280;38381;53.688;10.776;2023-10-31T13:52:08;99507.91;;;10.00;97.59
52469;BME280;38381;53.688;10.776;2023-10-31T13:57:09;99515.69;;;10.00;97.43
52469;BME280;38381;53.688;10.776;2023-10-31T14:02:10;99523.47;;;10.00;97.47
52469;BME280;38381;53.688;10.776;2023-10-31T14:07:16;99526.84;;;10.06;97.61
52469;BME280;38381;53.688;10.776;2023-10-31T14:12:20;99533.03;;;9.92;98.40
52469;BME280;38381;53.688;10.776;2023-10-31T14:17:21;99542.38;;;10.06;98.28
52469;BME280;38381;53.688;10.776;2023-10-31T14:22:23;99539.84;;;10.03;97.55
52469;BME280;38381;53.688;10.776;2023-10-31T14:27:23;99545.03;;;10.00;97.65
52469;BME280;38381;53.688;10.776;2023-10-31T14:32:24;99551.97;;;9.98;97.77
52469;BME280;38381;53.688;10.776;2023-10-31T14:37:24;99562.50;;;9.81;98.35
52469;BME280;38381;53.688;10.776;2023-10-31T14:42:24;99570.22;;;9.86;97.91
52469;BME280;38381;53.688;10.776;2023-10-31T14:47:25;99578.03;;;9.80;98.99
52469;BME280;38381;53.688;10.776;2023-10-31T14:52:25;99582.38;;;9.79;98.96
52469;BME280;38381;53.688;10.776;2023-10-31T14:57:26;99590.19;;;9.73;99.10
52469;BME280;38381;53.688;10.776;2023-10-31T15:02:29;99604.91;;;9.68;99.57
52469;BME280;38381;53.688;10.776;2023-10-31T15:07:30;99607.56;;;9.62;98.64
52469;BME280;38381;53.688;10.776;2023-10-31T15:12:30;99617.13;;;9.51;99.10
52469;BME280;38381;53.688;10.776;2023-10-31T15:17:30;99634.47;;;9.39;99.16
52469;BME280;38381;53.688;10.776;2023-10-31T15:22:32;99650.09;;;9.24;99.53
52469;BME280;38381;53.688;10.776;2023-10-31T15:27:34;99668.25;;;9.15;99.07
52469;BME280;38381;53.688;10.776;2023-10-31T15:32:35;99670.00;;;9.11;98.41
52469;BME280;38381;53.688;10.776;2023-10-31T15:37:36;99678.69;;;8.95;98.52
52469;BME280;38381;53.688;10.776;2023-10-31T15:42:37;99696.88;;;8.67;97.94
52469;BME280;38381;53.688;10.776;2023-10-31T15:47:37;99717.63;;;8.45;97.37
52469;BME280;38381;53.688;10.776;2023-10-31T15:52:37;99726.22;;;8.17;98.37
52469;BME280;38381;53.688;10.776;2023-10-31T15:57:38;99739.13;;;8.03;98.76
52469;BME280;38381;53.688;10.776;2023-10-31T16:02:39;99750.31;;;8.00;98.17
52469;BME280;38381;53.688;10.776;2023-10-31T16:07:39;99766.66;;;7.95;98.40
52469;BME280;38381;53.688;10.776;2023-10-31T16:12:40;99776.13;;;7.86;97.86
52469;BME280;38381;53.688;10.776;2023-10-31T16:17:40;99803.66;;;7.75;97.27
52469;BME280;38381;53.688;10.776;2023-10-31T16:22:40;99818.22;;;7.59;97.78
52469;BME280;38381;53.688;10.776;2023-10-31T16:27:41;99824.16;;;7.32;97.33
52469;BME280;38381;53.688;10.776;2023-10-31T16:32:41;99842.13;;;7.20;97.77
52469;BME280;38381;53.688;10.776;2023-10-31T16:37:41;99853.34;;;7.28;95.82
52469;BME280;38381;53.688;10.776;2023-10-31T16:42:42;99861.84;;;7.10;95.23
52469;BME280;38381;53.688;10.776;2023-10-31T16:47:44;99873.75;;;6.93;94.10
52469;BME280;38381;53.688;10.776;2023-10-31T16:52:45;99891.78;;;6.91;93.85
52469;BME280;38381;53.688;10.776;2023-10-31T16:57:46;99908.06;;;6.85;93.94
52469;BME280;38381;53.688;10.776;2023-10-31T17:02:46;99931.09;;;6.65;92.17
52469;BME280;38381;53.688;10.776;2023-10-31T17:07:46;99939.59;;;6.55;90.98
52469;BME280;38381;53.688;10.776;2023-10-31T17:12:47;99967.84;;;6.49;91.63
52469;BME280;38381;53.688;10.776;2023-10-31T17:17:49;99976.31;;;6.37;90.33
52469;BME280;38381;53.688;10.776;2023-10-31T17:22:50;99979.66;;;6.29;90.64
52469;BME280;38381;53.688;10.776;2023-10-31T17:27:50;100004.44;;;6.17;90.56
52469;BME280;38381;53.688;10.776;2023-10-31T17:32:50;100007.66;;;6.01;90.82
52469;BME280;38381;53.688;10.776;2023-10-31T17:37:53;100002.31;;;5.90;91.25
52469;BME280;38381;53.688;10.776;2023-10-31T17:42:53;100006.50;;;5.80;90.78
52469;BME280;38381;53.688;10.776;2023-10-31T17:47:53;100024.53;;;5.83;91.24
52469;BME280;38381;53.688;10.776;2023-10-31T17:52:56;100034.88;;;5.87;90.75
52469;BME280;38381;53.688;10.776;2023-10-31T17:57:56;100036.41;;;5.72;90.96
52469;BME280;38381;53.688;10.776;2023-10-31T18:02:57;100052.59;;;5.67;91.93
52469;BME280;38381;53.688;10.776;2023-10-31T18:07:58;100066.28;;;5.65;91.35
52469;BME280;38381;53.688;10.776;2023-10-31T18:12:58;100074.78;;;5.58;91.09
52469;BME280;38381;53.688;10.776;2023-10-31T18:17:59;100089.16;;;5.46;91.19
52469;BME280;38381;53.688;10.776;2023-10-31T18:22:59;100107.03;;;5.38;91.49
52469;BME280;38381;53.688;10.776;2023-10-31T18:27:59;100113.84;;;5.36;91.99
52469;BME280;38381;53.688;10.776;2023-10-31T18:33:00;100127.31;;;5.21;90.45
52469;BME280;38381;53.688;10.776;2023-10-31T18:38:03;100129.81;;;5.18;90.95
52469;BME280;38381;53.688;10.776;2023-10-31T18:43:03;100140.72;;;5.04;91.15
52469;BME280;38381;53.688;10.776;2023-10-31T18:48:04;100145.81;;;5.03;91.47
52469;BME280;38381;53.688;10.776;2023-10-31T18:53:04;100155.03;;;4.93;92.23
52469;BME280;38381;53.688;10.776;2023-10-31T18:58:04;100161.66;;;4.80;92.74
52469;BME280;38381;53.688;10.776;2023-10-31T19:03:05;100166.84;;;4.83;92.69
52469;BME280;38381;53.688;10.776;2023-10-31T19:08:05;100171.03;;;4.78;93.41
52469;BME280;38381;53.688;10.776;2023-10-31T19:13:05;100189.63;;;4.67;92.49
52469;BME280;38381;53.688;10.776;2023-10-31T19:18:06;100198.03;;;4.61;92.48
52469;BME280;38381;53.688;10.776;2023-10-31T19:23:06;100202.91;;;4.49;92.85
52469;BME280;38381;53.688;10.776;2023-10-31T19:28:07;100202.81;;;4.44;93.73
52469;BME280;38381;53.688;10.776;2023-10-31T19:33:08;100211.28;;;4.40;94.03
52469;BME280;38381;53.688;10.776;2023-10-31T19:38:08;100219.03;;;4.41;93.60
52469;BME280;38381;53.688;10.776;2023-10-31T19:43:09;100219.72;;;4.34;94.27
52469;BME280;38381;53.688;10.776;2023-10-31T19:48:11;100212.00;;;4.34;93.94
52469;BME280;38381;53.688;10.776;2023-10-31T19:53:12;100219.69;;;4.33;93.91
52469;BME280;38381;53.688;10.776;2023-10-31T19:58:12;100224.84;;;4.34;94.26
52469;BME280;38381;53.688;10.776;2023-10-31T20:03:13;100217.84;;;4.27;93.93
52469;BME280;38381;53.688;10.776;2023-10-31T20:08:14;100229.81;;;4.27;94.88
52469;BME280;38381;53.688;10.776;2023-10-31T20:13:14;100225.75;;;4.35;94.24
52469;BME280;38381;53.688;10.776;2023-10-31T20:18:16;100234.19;;;4.31;93.79
52469;BME280;38381;53.688;10.776;2023-10-31T20:23:16;100238.63;;;4.38;92.68
52469;BME280;38381;53.688;10.776;2023-10-31T20:28:17;100249.69;;;4.35;93.86
52469;BME280;38381;53.688;10.776;2023-10-31T20:33:18;100247.94;;;4.33;94.10
52469;BME280;38381;53.688;10.776;2023-10-31T20:38:18;100259.16;;;4.38;93.31
52469;BME280;38381;53.688;10.776;2023-10-31T20:43:18;100263.47;;;4.39;94.80
52469;BME280;38381;53.688;10.776;2023-10-31T20:48:19;100263.41;;;4.36;94.34
52469;BME280;38381;53.688;10.776;2023-10-31T20:53:20;100264.38;;;4.41;94.31
52469;BME280;38381;53.688;10.776;2023-10-31T20:58:20;100250.56;;;4.36;94.13
52469;BME280;38381;53.688;10.776;2023-10-31T21:03:21;100266.16;;;4.43;93.26
52469;BME280;38381;53.688;10.776;2023-10-31T21:08:22;100265.38;;;4.48;93.89
52469;BME280;38381;53.688;10.776;2023-10-31T21:13:22;100263.06;;;4.58;94.20
52469;BME280;38381;53.688;10.776;2023-10-31T21:18:23;100262.19;;;4.58;92.22
52469;BME280;38381;53.688;10.776;2023-10-31T21:23:24;100263.81;;;4.54;93.79
52469;BME280;38381;53.688;10.776;2023-10-31T21:28:24;100269.22;;;4.67;93.48
52469;BME280;38381;53.688;10.776;2023-10-31T21:33:26;100262.34;;;4.64;94.48
52469;BME280;38381;53.688;10.776;2023-10-31T21:38:27;100268.28;;;4.63;93.63
52469;BME280;38381;53.688;10.776;2023-10-31T21:43:27;100270.03;;;4.64;93.56
52469;BME280;38381;53.688;10.776;2023-10-31T21:48:27;100262.25;;;4.59;94.01
52469;BME280;38381;53.688;10.776;2023-10-31T21:53:28;100260.44;;;4.55;92.91
52469;BME280;38381;53.688;10.776;2023-10-31T21:58:28;100255.31;;;4.57;92.51
52469;BME280;38381;53.688;10.776;2023-10-31T22:03:29;100257.75;;;4.51;93.34
52469;BME280;38381;53.688;10.776;2023-10-31T22:08:29;100261.97;;;4.47;93.12
52469;BME280;38381;53.688;10.776;2023-10-31T22:13:30;100267.72;;;4.37;94.31
52469;BME280;38381;53.688;10.776;2023-10-31T22:18:30;100257.50;;;4.40;93.45
52469;BME280;38381;53.688;10.776;2023-10-31T22:23:30;100267.63;;;4.34;93.24
52469;BME280;38381;53.688;10.776;2023-10-31T22:28:31;100262.53;;;4.35;94.81
52469;BME280;38381;53.688;10.776;2023-10-31T22:33:31;100270.34;;;4.40;94.58
52469;BME280;38381;53.688;10.776;2023-10-31T22:38:31;100271.91;;;4.33;93.37
52469;BME280;38381;53.688;10.776;2023-10-31T22:43:32;100275.28;;;4.31;94.30
52469;BME280;38381;53.688;10.776;2023-10-31T22:48:33;100284.53;;;4.26;94.52
52469;BME280;38381;53.688;10.776;2023-10-31T22:53:33;100287.06;;;4.22;94.36
52469;BME280;38381;53.688;10.776;2023-10-31T22:58:34;100281.81;;;4.19;93.34
52469;BME280;38381;53.688;10.776;2023-10-31T23:03:34;100287.00;;;4.21;93.77
52469;BME280;38381;53.688;10.776;2023-10-31T23:08:35;100276.50;;;4.12;94.90
52469;BME280;38381;53.688;10.776;2023-10-31T23:13:36;100282.31;;;4.05;94.76
52469;BME280;38381;53.688;10.776;2023-10-31T23:18:37;100296.25;;;4.14;95.77
52469;BME280;38381;53.688;10.776;2023-10-31T23:23:38;100291.94;;;4.13;95.05
52469;BME280;38381;53.688;10.776;2023-10-31T23:28:39;100295.91;;;4.00;94.40
52469;BME280;38381;53.688;10.776;2023-10-31T23:33:39;100295.81;;;3.97;95.78
52469;BME280;38381;53.688;10.776;2023-10-31T23:38:40;100292.38;;;3.97;95.09
52469;BME280;38381;53.688;10.776;2023-10-31T23:43:40;100296.56;;;3.93;94.90
52469;BME280;38381;53.688;10.776;2023-10-31T23:48:41;100297.41;;;3.92;93.46
52469;BME280;38381;53.688;10.776;2023-10-31T23:53:41;100313.50;;;3.87;93.84
52469;BME280;38381;53.688;10.776;2023-10-31T23:58:42;100304.72;;;3.78;94.32
